QFA420 YMML-YSSY
Flight info
| Callsign | QFA420 |
|---|---|
| Flight time | 1h 8m |
| Altitude | 35000 |
| Route | ML H129 DOSEL Y59 RIVET |
| Aircraft | B738/M-SDE2E3FGHIRWXY/LB1 |
Departure
| Time | 2026-05-04 08:40 |
|---|---|
| Airport | Melbourne Airport (YMML) |
Arrival
| Time | 2026-05-04 09:49 |
|---|---|
| Airport | Sydney Kingsford Smith International Airport (YSSY) |
| Time | Latitude | Longitude | Altitude | Speed | Heading |
|---|---|---|---|---|---|
| 2026-05-04 07:56 | -37.66819 | 144.85166 | 396 ft | 0 kts | 82° |
| 2026-05-04 08:19 | -37.66820 | 144.85153 | 395 ft | 0 kts | 82° |
| 2026-05-04 08:19 | -37.66819 | 144.85165 | 396 ft | 0 kts | 82° |
| 2026-05-04 08:22 | -37.66821 | 144.85149 | 393 ft | 2 kts | 81° |
| 2026-05-04 08:22 | -37.66823 | 144.85129 | 396 ft | 2 kts | 79° |
| 2026-05-04 08:24 | -37.66837 | 144.85083 | 391 ft | 0 kts | 58° |
| 2026-05-04 08:25 | -37.66836 | 144.85085 | 390 ft | 2 kts | 57° |
| 2026-05-04 08:25 | -37.66803 | 144.85093 | 397 ft | 4 kts | 355° |
| 2026-05-04 08:25 | -37.66766 | 144.85089 | 393 ft | 7 kts | 355° |
| 2026-05-04 08:25 | -37.66732 | 144.85086 | 398 ft | 8 kts | 355° |
| 2026-05-04 08:26 | -37.66666 | 144.85073 | 398 ft | 11 kts | 349° |
| 2026-05-04 08:27 | -37.66689 | 144.84309 | 392 ft | 17 kts | 263° |
| 2026-05-04 08:28 | -37.66702 | 144.84181 | 395 ft | 13 kts | 259° |
| 2026-05-04 08:28 | -37.66717 | 144.84071 | 394 ft | 13 kts | 262° |
| 2026-05-04 08:28 | -37.66769 | 144.83983 | 392 ft | 14 kts | 189° |
| 2026-05-04 08:28 | -37.66878 | 144.84000 | 388 ft | 18 kts | 175° |
| 2026-05-04 08:29 | -37.67018 | 144.84026 | 384 ft | 22 kts | 171° |
| 2026-05-04 08:29 | -37.67174 | 144.84056 | 379 ft | 23 kts | 171° |
| 2026-05-04 08:29 | -37.67328 | 144.84085 | 375 ft | 22 kts | 172° |
| 2026-05-04 08:31 | -37.67805 | 144.84172 | 361 ft | 0 kts | 171° |
| 2026-05-04 08:35 | -37.67873 | 144.84116 | 361 ft | 0 kts | 261° |
| 2026-05-04 08:37 | -37.67828 | 144.83956 | 360 ft | 0 kts | 347° |
| 2026-05-04 08:37 | -37.67827 | 144.83956 | 360 ft | 0 kts | 350° |
| 2026-05-04 08:38 | -37.67684 | 144.83932 | 362 ft | 61 kts | 352° |
| 2026-05-04 08:38 | -37.66981 | 144.83814 | 402 ft | 137 kts | 353° |
| 2026-05-04 08:38 | -37.65905 | 144.83643 | 996 ft | 166 kts | 350° |
| 2026-05-04 08:40 | -37.56702 | 144.83729 | 5951 ft | 227 kts | 18° |
| 2026-05-04 08:40 | -37.55255 | 144.84521 | 6665 ft | 225 kts | 4° |
| 2026-05-04 08:40 | -37.53739 | 144.84588 | 7444 ft | 216 kts | 351° |
| 2026-05-04 08:41 | -37.52223 | 144.84523 | 8162 ft | 222 kts | 352° |
| 2026-05-04 08:41 | -37.50663 | 144.84461 | 8885 ft | 226 kts | 352° |
| 2026-05-04 08:41 | -37.49077 | 144.84397 | 9653 ft | 230 kts | 352° |
| 2026-05-04 08:41 | -37.47464 | 144.84330 | 10337 ft | 234 kts | 352° |
| 2026-05-04 08:42 | -37.45825 | 144.84258 | 11014 ft | 237 kts | 352° |
| 2026-05-04 08:42 | -37.44162 | 144.84251 | 11696 ft | 245 kts | 3° |
| 2026-05-04 08:42 | -37.42595 | 144.85233 | 12339 ft | 266 kts | 41° |
| 2026-05-04 08:42 | -37.41580 | 144.87224 | 13023 ft | 275 kts | 59° |
| 2026-05-04 08:43 | -37.40728 | 144.89405 | 13700 ft | 280 kts | 59° |
| 2026-05-04 08:43 | -37.39843 | 144.91599 | 14331 ft | 282 kts | 58° |
| 2026-05-04 08:43 | -37.38928 | 144.93749 | 14961 ft | 284 kts | 57° |
| 2026-05-04 08:43 | -37.37960 | 144.95920 | 15612 ft | 286 kts | 56° |
| 2026-05-04 08:44 | -37.36958 | 144.98089 | 16247 ft | 288 kts | 54° |
| 2026-05-04 08:44 | -37.35931 | 145.00259 | 16883 ft | 290 kts | 54° |
| 2026-05-04 08:46 | -37.28359 | 145.15796 | 21043 ft | 304 kts | 52° |
| 2026-05-04 08:46 | -37.27236 | 145.18054 | 21598 ft | 306 kts | 52° |
| 2026-05-04 08:46 | -37.26101 | 145.20333 | 22143 ft | 309 kts | 52° |
| 2026-05-04 08:46 | -37.24958 | 145.22627 | 22688 ft | 311 kts | 52° |
| 2026-05-04 08:47 | -37.23806 | 145.24937 | 23240 ft | 313 kts | 52° |
| 2026-05-04 08:47 | -37.22645 | 145.27265 | 23733 ft | 315 kts | 52° |
| 2026-05-04 08:47 | -37.21475 | 145.29607 | 24163 ft | 318 kts | 51° |
| 2026-05-04 08:47 | -37.20297 | 145.31962 | 24587 ft | 320 kts | 51° |
| 2026-05-04 08:48 | -37.19110 | 145.34338 | 25028 ft | 322 kts | 50° |
| 2026-05-04 08:48 | -37.17927 | 145.36697 | 25446 ft | 325 kts | 50° |
| 2026-05-04 08:48 | -37.16721 | 145.39102 | 25868 ft | 327 kts | 49° |
| 2026-05-04 08:48 | -37.15466 | 145.41473 | 26281 ft | 327 kts | 46° |
| 2026-05-04 08:49 | -37.14143 | 145.43800 | 26665 ft | 328 kts | 44° |
| 2026-05-04 08:50 | -37.05882 | 145.58036 | 28973 ft | 342 kts | 41° |
| 2026-05-04 08:50 | -37.04479 | 145.60468 | 29281 ft | 347 kts | 41° |
| 2026-05-04 08:51 | -37.03039 | 145.62958 | 29592 ft | 351 kts | 40° |
| 2026-05-04 08:51 | -37.01617 | 145.65419 | 29882 ft | 355 kts | 40° |
| 2026-05-04 08:51 | -37.00163 | 145.67936 | 30176 ft | 359 kts | 40° |
| 2026-05-04 08:51 | -36.98697 | 145.70475 | 30461 ft | 362 kts | 40° |
| 2026-05-04 08:52 | -36.97216 | 145.73040 | 30741 ft | 364 kts | 41° |
| 2026-05-04 08:52 | -36.95728 | 145.75615 | 31029 ft | 367 kts | 41° |
| 2026-05-04 08:52 | -36.94231 | 145.78205 | 31311 ft | 369 kts | 41° |
| 2026-05-04 08:52 | -36.92724 | 145.80800 | 31576 ft | 370 kts | 41° |
| 2026-05-04 08:53 | -36.91207 | 145.83417 | 31806 ft | 374 kts | 41° |
| 2026-05-04 08:54 | -36.80155 | 146.02429 | 33383 ft | 397 kts | 43° |
| 2026-05-04 08:55 | -36.78524 | 146.05228 | 33594 ft | 400 kts | 43° |
| 2026-05-04 08:55 | -36.76886 | 146.08040 | 33877 ft | 402 kts | 43° |
| 2026-05-04 08:55 | -36.75239 | 146.10881 | 34041 ft | 405 kts | 43° |
| 2026-05-04 08:55 | -36.73546 | 146.13774 | 34170 ft | 410 kts | 43° |
| 2026-05-04 08:57 | -36.61542 | 146.34211 | 34985 ft | 427 kts | 44° |
| 2026-05-04 09:01 | -36.36339 | 146.76766 | 35049 ft | 470 kts | 45° |
| 2026-05-04 09:01 | -36.32417 | 146.83346 | 35041 ft | 479 kts | 45° |
| 2026-05-04 09:02 | -36.28436 | 146.90016 | 35028 ft | 482 kts | 45° |
| 2026-05-04 09:02 | -36.24441 | 146.96697 | 35039 ft | 483 kts | 45° |
| 2026-05-04 09:03 | -36.20436 | 147.03377 | 35034 ft | 482 kts | 45° |
| 2026-05-04 09:03 | -36.16436 | 147.10032 | 35039 ft | 481 kts | 44° |
| 2026-05-04 09:04 | -36.12478 | 147.16607 | 35044 ft | 478 kts | 44° |
| 2026-05-04 09:04 | -36.08509 | 147.23191 | 35048 ft | 476 kts | 44° |
| 2026-05-04 09:05 | -36.04553 | 147.29739 | 35043 ft | 474 kts | 44° |
| 2026-05-04 09:05 | -36.00614 | 147.36249 | 35050 ft | 472 kts | 44° |
| 2026-05-04 09:06 | -35.96677 | 147.42742 | 35053 ft | 471 kts | 44° |
| 2026-05-04 09:08 | -35.80999 | 147.68476 | 35077 ft | 470 kts | 44° |
| 2026-05-04 09:08 | -35.77694 | 147.73873 | 35076 ft | 471 kts | 43° |
| 2026-05-04 09:09 | -35.73735 | 147.80325 | 35071 ft | 473 kts | 43° |
| 2026-05-04 09:09 | -35.69764 | 147.86788 | 35079 ft | 474 kts | 43° |
| 2026-05-04 09:10 | -35.65779 | 147.93265 | 35047 ft | 475 kts | 43° |
| 2026-05-04 09:10 | -35.61790 | 147.99737 | 35066 ft | 476 kts | 43° |
| 2026-05-04 09:11 | -35.57813 | 148.06175 | 35078 ft | 477 kts | 43° |
| 2026-05-04 09:11 | -35.53795 | 148.12667 | 35074 ft | 477 kts | 43° |
| 2026-05-04 09:12 | -35.49778 | 148.19149 | 35057 ft | 476 kts | 43° |
| 2026-05-04 09:14 | -35.33684 | 148.44955 | 35072 ft | 476 kts | 42° |
| 2026-05-04 09:14 | -35.29648 | 148.51395 | 35074 ft | 476 kts | 43° |
| 2026-05-04 09:15 | -35.25614 | 148.57820 | 35081 ft | 476 kts | 43° |
| 2026-05-04 09:15 | -35.21573 | 148.64243 | 35055 ft | 477 kts | 42° |
| 2026-05-04 09:17 | -35.03344 | 148.93072 | 35071 ft | 476 kts | 43° |
| 2026-05-04 09:18 | -34.99272 | 148.99476 | 34728 ft | 482 kts | 43° |
| 2026-05-04 09:18 | -34.97208 | 149.02715 | 34176 ft | 482 kts | 42° |
| 2026-05-04 09:18 | -34.95155 | 149.05943 | 33632 ft | 479 kts | 43° |
| 2026-05-04 09:19 | -34.93130 | 149.09129 | 33173 ft | 473 kts | 43° |
| 2026-05-04 09:19 | -34.91124 | 149.12282 | 32700 ft | 468 kts | 43° |
| 2026-05-04 09:19 | -34.89136 | 149.15399 | 32293 ft | 462 kts | 43° |
| 2026-05-04 09:19 | -34.87168 | 149.18478 | 31857 ft | 458 kts | 42° |
| 2026-05-04 09:20 | -34.85223 | 149.21518 | 31440 ft | 453 kts | 42° |
| 2026-05-04 09:20 | -34.83291 | 149.24534 | 31006 ft | 449 kts | 42° |
| 2026-05-04 09:20 | -34.81378 | 149.27517 | 30579 ft | 445 kts | 42° |
| 2026-05-04 09:20 | -34.79483 | 149.30469 | 30163 ft | 441 kts | 42° |
| 2026-05-04 09:21 | -34.77605 | 149.33395 | 29669 ft | 437 kts | 42° |
| 2026-05-04 09:21 | -34.75745 | 149.36291 | 29181 ft | 432 kts | 42° |
| 2026-05-04 09:21 | -34.73931 | 149.39188 | 28763 ft | 430 kts | 46° |
| 2026-05-04 09:21 | -34.72388 | 149.42336 | 28344 ft | 433 kts | 52° |
| 2026-05-04 09:22 | -34.71012 | 149.45524 | 27912 ft | 431 kts | 53° |
| 2026-05-04 09:22 | -34.69650 | 149.48760 | 27484 ft | 427 kts | 53° |
| 2026-05-04 09:22 | -34.68304 | 149.51953 | 27058 ft | 423 kts | 53° |
| 2026-05-04 09:22 | -34.66958 | 149.55110 | 26628 ft | 419 kts | 53° |
| 2026-05-04 09:23 | -34.65609 | 149.58236 | 26207 ft | 415 kts | 52° |
| 2026-05-04 09:23 | -34.64264 | 149.61326 | 25771 ft | 412 kts | 53° |
| 2026-05-04 09:23 | -34.62925 | 149.64387 | 25367 ft | 409 kts | 52° |
| 2026-05-04 09:23 | -34.61595 | 149.67420 | 24957 ft | 406 kts | 52° |
| 2026-05-04 09:25 | -34.52495 | 149.88104 | 21998 ft | 388 kts | 53° |
| 2026-05-04 09:25 | -34.51226 | 149.90979 | 21577 ft | 385 kts | 53° |
| 2026-05-04 09:26 | -34.49961 | 149.93841 | 21186 ft | 384 kts | 53° |
| 2026-05-04 09:26 | -34.48665 | 149.96752 | 20823 ft | 404 kts | 54° |
| 2026-05-04 09:26 | -34.47285 | 149.99834 | 20525 ft | 428 kts | 54° |
| 2026-05-04 09:26 | -34.45840 | 150.03078 | 20256 ft | 443 kts | 55° |
| 2026-05-04 09:27 | -34.44378 | 150.06389 | 19999 ft | 443 kts | 55° |
| 2026-05-04 09:27 | -34.42938 | 150.09665 | 19744 ft | 439 kts | 56° |
| 2026-05-04 09:27 | -34.41504 | 150.12918 | 19521 ft | 437 kts | 55° |
| 2026-05-04 09:27 | -34.40073 | 150.16152 | 19281 ft | 435 kts | 55° |
| 2026-05-04 09:28 | -34.38644 | 150.19372 | 19018 ft | 434 kts | 56° |
| 2026-05-04 09:28 | -34.37218 | 150.22578 | 18795 ft | 432 kts | 56° |
| 2026-05-04 09:28 | -34.35794 | 150.25773 | 18566 ft | 431 kts | 56° |
| 2026-05-04 09:28 | -34.34374 | 150.28957 | 18331 ft | 429 kts | 56° |
| 2026-05-04 09:29 | -34.32954 | 150.32139 | 18074 ft | 428 kts | 56° |
| 2026-05-04 09:29 | -34.31542 | 150.35296 | 17830 ft | 427 kts | 56° |
| 2026-05-04 09:29 | -34.30134 | 150.38447 | 17632 ft | 421 kts | 56° |
| 2026-05-04 09:29 | -34.28785 | 150.41476 | 17504 ft | 399 kts | 56° |
| 2026-05-04 09:30 | -34.27501 | 150.44361 | 17380 ft | 379 kts | 55° |
| 2026-05-04 09:30 | -34.26283 | 150.47097 | 17255 ft | 361 kts | 55° |
| 2026-05-04 09:30 | -34.25107 | 150.49725 | 17009 ft | 352 kts | 55° |
| 2026-05-04 09:30 | -34.23942 | 150.52313 | 16629 ft | 350 kts | 55° |
| 2026-05-04 09:31 | -34.22783 | 150.54884 | 16262 ft | 347 kts | 55° |
| 2026-05-04 09:31 | -34.21628 | 150.57449 | 15753 ft | 348 kts | 55° |
| 2026-05-04 09:31 | -34.20481 | 150.60001 | 15212 ft | 352 kts | 55° |
| 2026-05-04 09:31 | -34.19304 | 150.62616 | 14607 ft | 356 kts | 56° |
| 2026-05-04 09:32 | -34.18126 | 150.65238 | 14018 ft | 353 kts | 56° |
| 2026-05-04 09:32 | -34.16966 | 150.67828 | 13378 ft | 349 kts | 56° |
| 2026-05-04 09:34 | -34.09161 | 150.85138 | 9245 ft | 323 kts | 56° |
| 2026-05-04 09:34 | -34.08095 | 150.87510 | 8622 ft | 320 kts | 56° |
| 2026-05-04 09:34 | -34.07051 | 150.89836 | 8225 ft | 311 kts | 56° |
| 2026-05-04 09:34 | -34.06040 | 150.92087 | 7933 ft | 299 kts | 55° |
| 2026-05-04 09:35 | -34.05069 | 150.94247 | 7657 ft | 288 kts | 55° |
| 2026-05-04 09:35 | -34.04131 | 150.96328 | 7416 ft | 277 kts | 55° |
| 2026-05-04 09:35 | -34.03294 | 150.98379 | 7177 ft | 274 kts | 67° |
| 2026-05-04 09:35 | -34.03206 | 151.00693 | 6967 ft | 286 kts | 99° |
| 2026-05-04 09:37 | -34.14705 | 151.09492 | 5220 ft | 290 kts | 171° |
| 2026-05-04 09:37 | -34.16680 | 151.09983 | 4981 ft | 288 kts | 170° |
| 2026-05-04 09:38 | -34.18638 | 151.10482 | 4717 ft | 286 kts | 169° |
| 2026-05-04 09:38 | -34.20569 | 151.10968 | 4428 ft | 281 kts | 170° |
| 2026-05-04 09:38 | -34.22468 | 151.11411 | 4200 ft | 274 kts | 171° |
| 2026-05-04 09:38 | -34.24274 | 151.11933 | 4107 ft | 261 kts | 155° |
| 2026-05-04 09:39 | -34.25663 | 151.13215 | 3996 ft | 244 kts | 122° |
| 2026-05-04 09:39 | -34.26256 | 151.14986 | 3885 ft | 215 kts | 89° |
| 2026-05-04 09:39 | -34.26310 | 151.16714 | 3688 ft | 202 kts | 83° |
| 2026-05-04 09:39 | -34.26314 | 151.18410 | 3272 ft | 203 kts | 83° |
| 2026-05-04 09:40 | -34.26187 | 151.20069 | 3046 ft | 194 kts | 62° |
| 2026-05-04 09:40 | -34.25380 | 151.21288 | 3030 ft | 183 kts | 27° |
| 2026-05-04 09:40 | -34.24321 | 151.22049 | 3000 ft | 175 kts | 23° |
| 2026-05-04 09:40 | -34.23264 | 151.22753 | 2981 ft | 169 kts | 23° |
| 2026-05-04 09:41 | -34.22269 | 151.23419 | 2981 ft | 165 kts | 23° |
| 2026-05-04 09:42 | -34.14709 | 151.22826 | 3011 ft | 168 kts | 347° |
| 2026-05-04 09:43 | -34.13563 | 151.22529 | 2999 ft | 167 kts | 347° |
| 2026-05-04 09:43 | -34.12430 | 151.22235 | 2993 ft | 166 kts | 347° |
| 2026-05-04 09:43 | -34.11292 | 151.21938 | 2903 ft | 170 kts | 347° |
| 2026-05-04 09:43 | -34.10128 | 151.21635 | 2710 ft | 171 kts | 347° |
| 2026-05-04 09:44 | -34.08971 | 151.21334 | 2480 ft | 168 kts | 348° |
| 2026-05-04 09:44 | -34.07833 | 151.21037 | 2270 ft | 167 kts | 349° |
| 2026-05-04 09:44 | -34.06703 | 151.20743 | 2045 ft | 166 kts | 348° |
| 2026-05-04 09:46 | -34.00030 | 151.19009 | 783 ft | 137 kts | 349° |
| 2026-05-04 09:46 | -33.99117 | 151.18765 | 561 ft | 130 kts | 351° |
| 2026-05-04 09:46 | -33.98252 | 151.18538 | 389 ft | 128 kts | 352° |
| 2026-05-04 09:47 | -33.97369 | 151.18313 | 286 ft | 133 kts | 352° |
| 2026-05-04 09:47 | -33.96461 | 151.18107 | 194 ft | 137 kts | 346° |
| 2026-05-04 09:49 | -33.94534 | 151.17671 | 23 ft | 0 kts | 74° |
| 2026-05-04 09:49 | -33.94531 | 151.17680 | 23 ft | 3 kts | 63° |
| 2026-05-04 09:51 | -33.94028 | 151.17645 | 20 ft | 14 kts | 346° |
| 2026-05-04 09:51 | -33.93967 | 151.17627 | 19 ft | 13 kts | 346° |
| 2026-05-04 09:51 | -33.93898 | 151.17609 | 19 ft | 5 kts | 348° |
| 2026-05-04 09:51 | -33.93895 | 151.17608 | 18 ft | 0 kts | 348° |
| 2026-05-04 09:52 | -33.93893 | 151.17608 | 18 ft | 3 kts | 348° |
| 2026-05-04 09:52 | -33.93849 | 151.17597 | 18 ft | 8 kts | 348° |
| 2026-05-04 09:52 | -33.93795 | 151.17583 | 17 ft | 8 kts | 347° |